sensor_id;sensor_type;location;lat;lon;timestamp;P1;durP1;ratioP1;P2;durP2;ratioP2
7473;SDS011;3778;42.572;23.426;2024-03-02T00:02:04;28.63;;;11.73;;
7473;SDS011;3778;42.572;23.426;2024-03-02T00:04:31;30.10;;;11.85;;
7473;SDS011;3778;42.572;23.426;2024-03-02T00:06:57;23.10;;;10.02;;
7473;SDS011;3778;42.572;23.426;2024-03-02T00:09:22;29.15;;;11.52;;
7473;SDS011;3778;42.572;23.426;2024-03-02T00:11:47;28.10;;;12.90;;
7473;SDS011;3778;42.572;23.426;2024-03-02T00:14:13;27.73;;;11.50;;
7473;SDS011;3778;42.572;23.426;2024-03-02T00:16:38;32.47;;;11.73;;
7473;SDS011;3778;42.572;23.426;2024-03-02T00:19:05;30.33;;;12.27;;
7473;SDS011;3778;42.572;23.426;2024-03-02T00:21:31;27.45;;;12.60;;
7473;SDS011;3778;42.572;23.426;2024-03-02T00:23:58;29.05;;;11.75;;
7473;SDS011;3778;42.572;23.426;2024-03-02T00:26:25;28.90;;;12.38;;
7473;SDS011;3778;42.572;23.426;2024-03-02T00:28:50;34.42;;;12.70;;
7473;SDS011;3778;42.572;23.426;2024-03-02T00:31:21;30.58;;;12.02;;
7473;SDS011;3778;42.572;23.426;2024-03-02T00:33:47;30.15;;;11.98;;
7473;SDS011;3778;42.572;23.426;2024-03-02T00:36:14;28.25;;;11.57;;
7473;SDS011;3778;42.572;23.426;2024-03-02T00:38:45;27.23;;;11.85;;
7473;SDS011;3778;42.572;23.426;2024-03-02T00:41:15;28.73;;;11.98;;
7473;SDS011;3778;42.572;23.426;2024-03-02T00:44:05;25.38;;;11.02;;
7473;SDS011;3778;42.572;23.426;2024-03-02T00:46:33;20.35;;;9.52;;
7473;SDS011;3778;42.572;23.426;2024-03-02T00:49:00;23.02;;;9.50;;
7473;SDS011;3778;42.572;23.426;2024-03-02T00:51:29;23.13;;;10.35;;
7473;SDS011;3778;42.572;23.426;2024-03-02T00:53:57;22.80;;;9.40;;
7473;SDS011;3778;42.572;23.426;2024-03-02T00:56:24;23.45;;;9.05;;
7473;SDS011;3778;42.572;23.426;2024-03-02T00:58:50;19.95;;;8.73;;
7473;SDS011;3778;42.572;23.426;2024-03-02T01:01:16;19.95;;;8.00;;
7473;SDS011;3778;42.572;23.426;2024-03-02T01:03:42;22.83;;;9.70;;
7473;SDS011;3778;42.572;23.426;2024-03-02T01:06:08;22.13;;;8.48;;
7473;SDS011;3778;42.572;23.426;2024-03-02T01:08:34;21.30;;;8.82;;
7473;SDS011;3778;42.572;23.426;2024-03-02T01:11:01;24.85;;;9.82;;
7473;SDS011;3778;42.572;23.426;2024-03-02T01:13:26;16.40;;;7.65;;
7473;SDS011;3778;42.572;23.426;2024-03-02T01:15:52;18.38;;;7.88;;
7473;SDS011;3778;42.572;23.426;2024-03-02T01:18:18;18.02;;;7.68;;
7473;SDS011;3778;42.572;23.426;2024-03-02T01:20:43;17.38;;;8.32;;
7473;SDS011;3778;42.572;23.426;2024-03-02T01:23:09;22.63;;;9.35;;
7473;SDS011;3778;42.572;23.426;2024-03-02T01:25:34;19.92;;;9.00;;
7473;SDS011;3778;42.572;23.426;2024-03-02T01:28:00;20.42;;;9.40;;
7473;SDS011;3778;42.572;23.426;2024-03-02T01:30:26;21.27;;;10.00;;
7473;SDS011;3778;42.572;23.426;2024-03-02T01:32:51;16.80;;;7.63;;
7473;SDS011;3778;42.572;23.426;2024-03-02T01:35:17;22.35;;;10.10;;
7473;SDS011;3778;42.572;23.426;2024-03-02T01:37:42;19.40;;;9.02;;
7473;SDS011;3778;42.572;23.426;2024-03-02T01:40:08;21.85;;;8.50;;
7473;SDS011;3778;42.572;23.426;2024-03-02T01:42:37;21.35;;;9.27;;
7473;SDS011;3778;42.572;23.426;2024-03-02T01:45:09;17.92;;;8.90;;
7473;SDS011;3778;42.572;23.426;2024-03-02T01:47:35;20.27;;;8.95;;
7473;SDS011;3778;42.572;23.426;2024-03-02T01:50:00;24.30;;;10.07;;
7473;SDS011;3778;42.572;23.426;2024-03-02T01:52:26;20.50;;;8.80;;
7473;SDS011;3778;42.572;23.426;2024-03-02T01:54:52;21.08;;;9.13;;
7473;SDS011;3778;42.572;23.426;2024-03-02T01:57:18;18.23;;;7.55;;
7473;SDS011;3778;42.572;23.426;2024-03-02T01:59:44;17.77;;;8.90;;
7473;SDS011;3778;42.572;23.426;2024-03-02T02:02:10;20.63;;;8.88;;
7473;SDS011;3778;42.572;23.426;2024-03-02T02:04:35;19.45;;;9.20;;
7473;SDS011;3778;42.572;23.426;2024-03-02T02:07:01;17.77;;;9.23;;
7473;SDS011;3778;42.572;23.426;2024-03-02T02:09:26;15.48;;;8.02;;
7473;SDS011;3778;42.572;23.426;2024-03-02T02:11:51;18.20;;;8.52;;
7473;SDS011;3778;42.572;23.426;2024-03-02T02:14:17;17.23;;;7.93;;
7473;SDS011;3778;42.572;23.426;2024-03-02T02:16:42;17.55;;;8.77;;
7473;SDS011;3778;42.572;23.426;2024-03-02T02:19:08;19.23;;;9.45;;
7473;SDS011;3778;42.572;23.426;2024-03-02T02:21:34;18.45;;;8.60;;
7473;SDS011;3778;42.572;23.426;2024-03-02T02:24:00;19.63;;;7.72;;
7473;SDS011;3778;42.572;23.426;2024-03-02T02:26:28;20.80;;;9.30;;
7473;SDS011;3778;42.572;23.426;2024-03-02T02:28:53;17.38;;;8.48;;
7473;SDS011;3778;42.572;23.426;2024-03-02T02:31:18;20.83;;;8.68;;
7473;SDS011;3778;42.572;23.426;2024-03-02T02:33:44;24.30;;;9.50;;
7473;SDS011;3778;42.572;23.426;2024-03-02T02:36:09;22.10;;;8.25;;
7473;SDS011;3778;42.572;23.426;2024-03-02T02:38:38;19.52;;;9.00;;
7473;SDS011;3778;42.572;23.426;2024-03-02T02:41:07;26.95;;;11.63;;
7473;SDS011;3778;42.572;23.426;2024-03-02T02:43:33;23.25;;;9.27;;
7473;SDS011;3778;42.572;23.426;2024-03-02T02:45:58;16.92;;;8.02;;
7473;SDS011;3778;42.572;23.426;2024-03-02T02:48:24;17.50;;;7.85;;
7473;SDS011;3778;42.572;23.426;2024-03-02T02:50:49;19.27;;;9.52;;
7473;SDS011;3778;42.572;23.426;2024-03-02T02:53:15;23.40;;;9.90;;
7473;SDS011;3778;42.572;23.426;2024-03-02T02:55:40;18.38;;;8.23;;
7473;SDS011;3778;42.572;23.426;2024-03-02T02:58:06;17.15;;;7.80;;
7473;SDS011;3778;42.572;23.426;2024-03-02T03:00:31;14.90;;;6.70;;
7473;SDS011;3778;42.572;23.426;2024-03-02T03:02:57;15.63;;;7.32;;
7473;SDS011;3778;42.572;23.426;2024-03-02T03:05:23;16.20;;;6.72;;
7473;SDS011;3778;42.572;23.426;2024-03-02T03:07:48;13.55;;;6.45;;
7473;SDS011;3778;42.572;23.426;2024-03-02T03:10:15;14.27;;;6.80;;
7473;SDS011;3778;42.572;23.426;2024-03-02T03:12:41;15.48;;;7.13;;
7473;SDS011;3778;42.572;23.426;2024-03-02T03:15:07;19.13;;;8.85;;
7473;SDS011;3778;42.572;23.426;2024-03-02T03:17:34;13.82;;;6.75;;
7473;SDS011;3778;42.572;23.426;2024-03-02T03:20:00;16.88;;;8.07;;
7473;SDS011;3778;42.572;23.426;2024-03-02T03:22:26;19.35;;;8.73;;
7473;SDS011;3778;42.572;23.426;2024-03-02T03:24:51;21.02;;;8.27;;
7473;SDS011;3778;42.572;23.426;2024-03-02T03:27:17;18.70;;;8.02;;
7473;SDS011;3778;42.572;23.426;2024-03-02T03:29:42;21.52;;;8.38;;
7473;SDS011;3778;42.572;23.426;2024-03-02T03:32:07;19.15;;;8.35;;
7473;SDS011;3778;42.572;23.426;2024-03-02T03:34:33;18.83;;;8.35;;
7473;SDS011;3778;42.572;23.426;2024-03-02T03:36:59;25.75;;;9.57;;
7473;SDS011;3778;42.572;23.426;2024-03-02T03:39:24;17.77;;;7.60;;
7473;SDS011;3778;42.572;23.426;2024-03-02T03:41:50;16.98;;;8.15;;
7473;SDS011;3778;42.572;23.426;2024-03-02T03:44:16;15.70;;;8.27;;
7473;SDS011;3778;42.572;23.426;2024-03-02T03:46:41;18.05;;;7.95;;
7473;SDS011;3778;42.572;23.426;2024-03-02T03:49:07;17.15;;;7.53;;
7473;SDS011;3778;42.572;23.426;2024-03-02T03:51:33;19.45;;;7.70;;
7473;SDS011;3778;42.572;23.426;2024-03-02T03:53:58;16.60;;;7.40;;
7473;SDS011;3778;42.572;23.426;2024-03-02T03:56:24;17.88;;;8.60;;
7473;SDS011;3778;42.572;23.426;2024-03-02T03:58:49;19.70;;;8.27;;
7473;SDS011;3778;42.572;23.426;2024-03-02T04:01:14;17.38;;;8.13;;
7473;SDS011;3778;42.572;23.426;2024-03-02T04:03:40;16.42;;;7.22;;
7473;SDS011;3778;42.572;23.426;2024-03-02T04:06:05;18.05;;;7.32;;
7473;SDS011;3778;42.572;23.426;2024-03-02T04:08:31;18.33;;;8.25;;
7473;SDS011;3778;42.572;23.426;2024-03-02T04:10:56;21.30;;;8.43;;
7473;SDS011;3778;42.572;23.426;2024-03-02T04:13:21;19.55;;;9.05;;
7473;SDS011;3778;42.572;23.426;2024-03-02T04:15:47;19.05;;;7.63;;
7473;SDS011;3778;42.572;23.426;2024-03-02T04:18:12;19.23;;;7.32;;
7473;SDS011;3778;42.572;23.426;2024-03-02T04:20:38;21.15;;;7.55;;
7473;SDS011;3778;42.572;23.426;2024-03-02T04:23:03;15.27;;;7.88;;
7473;SDS011;3778;42.572;23.426;2024-03-02T04:25:29;19.75;;;8.25;;
7473;SDS011;3778;42.572;23.426;2024-03-02T04:27:54;18.75;;;8.27;;
7473;SDS011;3778;42.572;23.426;2024-03-02T04:30:19;20.30;;;8.40;;
7473;SDS011;3778;42.572;23.426;2024-03-02T04:32:45;18.00;;;8.13;;
7473;SDS011;3778;42.572;23.426;2024-03-02T04:35:14;17.90;;;7.97;;
7473;SDS011;3778;42.572;23.426;2024-03-02T04:37:39;18.48;;;7.25;;
7473;SDS011;3778;42.572;23.426;2024-03-02T04:40:05;20.42;;;8.90;;
7473;SDS011;3778;42.572;23.426;2024-03-02T04:42:34;21.80;;;8.18;;
7473;SDS011;3778;42.572;23.426;2024-03-02T04:45:00;16.13;;;6.40;;
7473;SDS011;3778;42.572;23.426;2024-03-02T04:47:25;15.38;;;7.20;;
7473;SDS011;3778;42.572;23.426;2024-03-02T04:49:51;18.08;;;7.45;;
7473;SDS011;3778;42.572;23.426;2024-03-02T04:52:16;12.27;;;6.45;;
7473;SDS011;3778;42.572;23.426;2024-03-02T04:54:42;15.45;;;6.47;;
7473;SDS011;3778;42.572;23.426;2024-03-02T04:57:26;14.23;;;6.18;;
7473;SDS011;3778;42.572;23.426;2024-03-02T04:59:51;15.13;;;7.18;;
7473;SDS011;3778;42.572;23.426;2024-03-02T05:02:17;16.58;;;7.15;;
7473;SDS011;3778;42.572;23.426;2024-03-02T05:04:42;17.50;;;7.65;;
7473;SDS011;3778;42.572;23.426;2024-03-02T05:07:07;16.17;;;7.80;;
7473;SDS011;3778;42.572;23.426;2024-03-02T05:09:33;18.40;;;9.20;;
7473;SDS011;3778;42.572;23.426;2024-03-02T05:11:58;18.08;;;7.47;;
7473;SDS011;3778;42.572;23.426;2024-03-02T05:14:41;20.67;;;8.50;;
7473;SDS011;3778;42.572;23.426;2024-03-02T05:17:07;20.40;;;8.07;;
7473;SDS011;3778;42.572;23.426;2024-03-02T05:19:32;18.92;;;7.95;;
7473;SDS011;3778;42.572;23.426;2024-03-02T05:21:58;17.38;;;8.10;;
7473;SDS011;3778;42.572;23.426;2024-03-02T05:24:23;15.43;;;7.10;;
7473;SDS011;3778;42.572;23.426;2024-03-02T05:26:49;19.95;;;7.82;;
7473;SDS011;3778;42.572;23.426;2024-03-02T05:29:14;16.05;;;7.03;;
7473;SDS011;3778;42.572;23.426;2024-03-02T05:31:39;17.00;;;8.52;;
7473;SDS011;3778;42.572;23.426;2024-03-02T05:34:05;19.27;;;8.18;;
7473;SDS011;3778;42.572;23.426;2024-03-02T05:36:31;16.52;;;7.25;;
7473;SDS011;3778;42.572;23.426;2024-03-02T05:38:57;15.18;;;6.97;;
7473;SDS011;3778;42.572;23.426;2024-03-02T05:41:22;17.67;;;8.00;;
7473;SDS011;3778;42.572;23.426;2024-03-02T05:43:47;16.50;;;6.72;;
7473;SDS011;3778;42.572;23.426;2024-03-02T05:46:13;16.98;;;8.20;;
7473;SDS011;3778;42.572;23.426;2024-03-02T05:48:38;15.90;;;6.82;;
7473;SDS011;3778;42.572;23.426;2024-03-02T05:51:04;18.30;;;7.93;;
7473;SDS011;3778;42.572;23.426;2024-03-02T05:53:30;17.60;;;7.97;;
7473;SDS011;3778;42.572;23.426;2024-03-02T05:55:58;14.55;;;6.95;;
7473;SDS011;3778;42.572;23.426;2024-03-02T05:58:24;17.13;;;6.95;;
7473;SDS011;3778;42.572;23.426;2024-03-02T06:00:49;18.77;;;7.57;;
7473;SDS011;3778;42.572;23.426;2024-03-02T06:03:14;19.40;;;8.40;;
7473;SDS011;3778;42.572;23.426;2024-03-02T06:05:40;14.90;;;7.80;;
7473;SDS011;3778;42.572;23.426;2024-03-02T06:08:06;19.05;;;8.02;;
7473;SDS011;3778;42.572;23.426;2024-03-02T06:10:32;20.15;;;7.32;;
7473;SDS011;3778;42.572;23.426;2024-03-02T06:12:58;14.40;;;6.95;;
7473;SDS011;3778;42.572;23.426;2024-03-02T06:15:24;17.05;;;7.13;;
7473;SDS011;3778;42.572;23.426;2024-03-02T06:17:49;17.50;;;7.68;;
7473;SDS011;3778;42.572;23.426;2024-03-02T06:20:15;15.65;;;8.00;;
7473;SDS011;3778;42.572;23.426;2024-03-02T06:22:40;20.33;;;8.25;;
7473;SDS011;3778;42.572;23.426;2024-03-02T06:25:06;17.67;;;8.15;;
7473;SDS011;3778;42.572;23.426;2024-03-02T06:27:31;20.02;;;8.68;;
7473;SDS011;3778;42.572;23.426;2024-03-02T06:29:57;18.75;;;8.23;;
7473;SDS011;3778;42.572;23.426;2024-03-02T06:32:22;22.60;;;8.50;;
7473;SDS011;3778;42.572;23.426;2024-03-02T06:34:49;18.67;;;8.30;;
7473;SDS011;3778;42.572;23.426;2024-03-02T06:37:15;18.45;;;7.85;;
7473;SDS011;3778;42.572;23.426;2024-03-02T06:39:41;14.05;;;7.07;;
7473;SDS011;3778;42.572;23.426;2024-03-02T06:42:06;13.95;;;7.22;;
7473;SDS011;3778;42.572;23.426;2024-03-02T06:44:31;16.20;;;7.10;;
7473;SDS011;3778;42.572;23.426;2024-03-02T06:46:57;22.83;;;7.93;;
7473;SDS011;3778;42.572;23.426;2024-03-02T06:49:22;19.65;;;7.68;;
7473;SDS011;3778;42.572;23.426;2024-03-02T06:51:48;20.05;;;8.30;;
7473;SDS011;3778;42.572;23.426;2024-03-02T06:54:13;17.58;;;7.85;;
7473;SDS011;3778;42.572;23.426;2024-03-02T06:56:38;19.98;;;7.28;;
7473;SDS011;3778;42.572;23.426;2024-03-02T06:59:04;15.88;;;6.95;;
7473;SDS011;3778;42.572;23.426;2024-03-02T07:01:29;16.42;;;7.80;;
7473;SDS011;3778;42.572;23.426;2024-03-02T07:03:55;20.88;;;8.70;;
7473;SDS011;3778;42.572;23.426;2024-03-02T07:06:20;21.80;;;8.32;;
7473;SDS011;3778;42.572;23.426;2024-03-02T07:08:45;23.25;;;9.85;;
7473;SDS011;3778;42.572;23.426;2024-03-02T07:11:11;19.45;;;8.60;;
7473;SDS011;3778;42.572;23.426;2024-03-02T07:13:36;22.15;;;8.32;;
7473;SDS011;3778;42.572;23.426;2024-03-02T07:16:01;23.58;;;9.43;;
7473;SDS011;3778;42.572;23.426;2024-03-02T07:18:36;18.67;;;9.38;;
7473;SDS011;3778;42.572;23.426;2024-03-02T07:21:10;21.75;;;8.80;;
7473;SDS011;3778;42.572;23.426;2024-03-02T07:23:35;19.60;;;9.40;;
7473;SDS011;3778;42.572;23.426;2024-03-02T07:26:01;22.52;;;9.48;;
7473;SDS011;3778;42.572;23.426;2024-03-02T07:28:26;19.23;;;9.30;;
7473;SDS011;3778;42.572;23.426;2024-03-02T07:31:02;21.13;;;9.00;;
7473;SDS011;3778;42.572;23.426;2024-03-02T07:33:29;21.65;;;8.40;;
7473;SDS011;3778;42.572;23.426;2024-03-02T07:35:55;21.35;;;10.63;;
7473;SDS011;3778;42.572;23.426;2024-03-02T07:38:22;22.58;;;9.98;;
7473;SDS011;3778;42.572;23.426;2024-03-02T07:40:48;18.25;;;7.65;;
7473;SDS011;3778;42.572;23.426;2024-03-02T07:45:44;17.23;;;7.97;;
7473;SDS011;3778;42.572;23.426;2024-03-02T07:48:09;20.25;;;8.73;;
7473;SDS011;3778;42.572;23.426;2024-03-02T07:50:35;17.50;;;8.20;;
7473;SDS011;3778;42.572;23.426;2024-03-02T07:53:02;24.52;;;8.80;;
7473;SDS011;3778;42.572;23.426;2024-03-02T07:55:29;20.77;;;8.15;;
7473;SDS011;3778;42.572;23.426;2024-03-02T07:57:55;20.23;;;7.55;;
7473;SDS011;3778;42.572;23.426;2024-03-02T08:00:21;17.60;;;8.40;;
7473;SDS011;3778;42.572;23.426;2024-03-02T08:02:48;16.63;;;8.25;;
7473;SDS011;3778;42.572;23.426;2024-03-02T08:05:14;18.10;;;8.60;;
7473;SDS011;3778;42.572;23.426;2024-03-02T08:07:40;20.48;;;8.35;;
7473;SDS011;3778;42.572;23.426;2024-03-02T08:10:06;21.73;;;8.38;;
7473;SDS011;3778;42.572;23.426;2024-03-02T08:12:32;19.90;;;9.15;;
7473;SDS011;3778;42.572;23.426;2024-03-02T08:14:57;21.25;;;8.60;;
7473;SDS011;3778;42.572;23.426;2024-03-02T08:17:23;23.10;;;9.23;;
7473;SDS011;3778;42.572;23.426;2024-03-02T08:19:48;21.20;;;8.52;;
7473;SDS011;3778;42.572;23.426;2024-03-02T08:22:14;23.40;;;8.23;;
7473;SDS011;3778;42.572;23.426;2024-03-02T08:24:40;18.02;;;8.45;;
7473;SDS011;3778;42.572;23.426;2024-03-02T08:27:05;22.40;;;9.00;;
7473;SDS011;3778;42.572;23.426;2024-03-02T08:29:31;21.98;;;9.68;;
7473;SDS011;3778;42.572;23.426;2024-03-02T08:31:56;24.50;;;9.60;;
7473;SDS011;3778;42.572;23.426;2024-03-02T08:34:22;18.10;;;8.57;;
7473;SDS011;3778;42.572;23.426;2024-03-02T08:36:47;27.45;;;9.75;;
7473;SDS011;3778;42.572;23.426;2024-03-02T08:39:13;21.02;;;9.02;;
7473;SDS011;3778;42.572;23.426;2024-03-02T08:41:42;22.20;;;9.25;;
7473;SDS011;3778;42.572;23.426;2024-03-02T08:44:09;23.38;;;8.63;;
7473;SDS011;3778;42.572;23.426;2024-03-02T08:46:35;24.00;;;8.88;;
7473;SDS011;3778;42.572;23.426;2024-03-02T08:49:01;24.17;;;8.52;;
7473;SDS011;3778;42.572;23.426;2024-03-02T08:51:26;18.60;;;7.75;;
7473;SDS011;3778;42.572;23.426;2024-03-02T08:53:52;22.60;;;8.68;;
7473;SDS011;3778;42.572;23.426;2024-03-02T08:56:17;24.30;;;8.95;;
7473;SDS011;3778;42.572;23.426;2024-03-02T08:58:43;22.60;;;8.82;;
7473;SDS011;3778;42.572;23.426;2024-03-02T09:01:09;18.65;;;8.25;;
7473;SDS011;3778;42.572;23.426;2024-03-02T09:03:35;22.40;;;9.18;;
7473;SDS011;3778;42.572;23.426;2024-03-02T09:06:02;17.10;;;8.05;;
7473;SDS011;3778;42.572;23.426;2024-03-02T09:08:28;17.33;;;6.93;;
7473;SDS011;3778;42.572;23.426;2024-03-02T09:10:53;12.77;;;7.22;;
7473;SDS011;3778;42.572;23.426;2024-03-02T09:13:19;16.35;;;7.13;;
7473;SDS011;3778;42.572;23.426;2024-03-02T09:15:44;15.23;;;6.85;;
7473;SDS011;3778;42.572;23.426;2024-03-02T09:18:10;16.75;;;6.93;;
7473;SDS011;3778;42.572;23.426;2024-03-02T09:20:35;15.63;;;7.07;;
7473;SDS011;3778;42.572;23.426;2024-03-02T09:23:01;18.42;;;7.55;;
7473;SDS011;3778;42.572;23.426;2024-03-02T09:25:26;12.63;;;6.10;;
7473;SDS011;3778;42.572;23.426;2024-03-02T09:27:52;13.82;;;5.95;;
7473;SDS011;3778;42.572;23.426;2024-03-02T09:30:17;13.48;;;6.18;;
7473;SDS011;3778;42.572;23.426;2024-03-02T09:32:42;13.70;;;6.05;;
7473;SDS011;3778;42.572;23.426;2024-03-02T09:35:08;13.85;;;7.03;;
7473;SDS011;3778;42.572;23.426;2024-03-02T09:37:34;17.80;;;6.38;;
7473;SDS011;3778;42.572;23.426;2024-03-02T09:40:00;14.48;;;6.28;;
7473;SDS011;3778;42.572;23.426;2024-03-02T09:42:26;14.13;;;7.10;;
7473;SDS011;3778;42.572;23.426;2024-03-02T09:44:55;15.13;;;6.88;;
7473;SDS011;3778;42.572;23.426;2024-03-02T09:47:21;11.38;;;5.47;;
7473;SDS011;3778;42.572;23.426;2024-03-02T09:49:47;10.15;;;6.07;;
7473;SDS011;3778;42.572;23.426;2024-03-02T09:52:13;13.23;;;6.13;;
7473;SDS011;3778;42.572;23.426;2024-03-02T09:54:39;11.55;;;6.03;;
7473;SDS011;3778;42.572;23.426;2024-03-02T09:57:05;10.45;;;4.97;;
7473;SDS011;3778;42.572;23.426;2024-03-02T09:59:30;11.60;;;5.72;;
7473;SDS011;3778;42.572;23.426;2024-03-02T10:01:59;11.63;;;6.47;;
7473;SDS011;3778;42.572;23.426;2024-03-02T10:04:26;12.05;;;5.78;;
7473;SDS011;3778;42.572;23.426;2024-03-02T10:07:11;14.45;;;5.93;;
7473;SDS011;3778;42.572;23.426;2024-03-02T10:09:41;14.65;;;6.60;;
7473;SDS011;3778;42.572;23.426;2024-03-02T10:12:08;10.82;;;5.57;;
7473;SDS011;3778;42.572;23.426;2024-03-02T10:14:34;11.07;;;5.18;;
7473;SDS011;3778;42.572;23.426;2024-03-02T10:17:06;12.23;;;5.68;;
7473;SDS011;3778;42.572;23.426;2024-03-02T10:19:32;12.00;;;5.15;;
7473;SDS011;3778;42.572;23.426;2024-03-02T10:22:00;12.60;;;6.20;;
7473;SDS011;3778;42.572;23.426;2024-03-02T10:24:27;10.75;;;5.20;;
7473;SDS011;3778;42.572;23.426;2024-03-02T10:27:00;10.70;;;5.45;;
7473;SDS011;3778;42.572;23.426;2024-03-02T10:29:25;13.02;;;5.60;;
7473;SDS011;3778;42.572;23.426;2024-03-02T10:31:54;10.32;;;4.88;;
7473;SDS011;3778;42.572;23.426;2024-03-02T10:34:21;10.20;;;4.95;;
7473;SDS011;3778;42.572;23.426;2024-03-02T10:36:46;8.10;;;4.53;;
7473;SDS011;3778;42.572;23.426;2024-03-02T10:39:12;9.15;;;4.72;;
7473;SDS011;3778;42.572;23.426;2024-03-02T10:41:39;10.45;;;5.10;;
7473;SDS011;3778;42.572;23.426;2024-03-02T10:44:09;10.07;;;5.57;;
7473;SDS011;3778;42.572;23.426;2024-03-02T10:46:35;8.93;;;4.22;;
7473;SDS011;3778;42.572;23.426;2024-03-02T10:49:02;9.35;;;5.40;;
7473;SDS011;3778;42.572;23.426;2024-03-02T10:51:29;8.10;;;4.95;;
7473;SDS011;3778;42.572;23.426;2024-03-02T10:54:01;12.15;;;5.70;;
7473;SDS011;3778;42.572;23.426;2024-03-02T10:56:41;9.75;;;5.38;;
7473;SDS011;3778;42.572;23.426;2024-03-02T11:02:02;19.95;;;8.57;;
7473;SDS011;3778;42.572;23.426;2024-03-02T11:04:29;19.25;;;8.77;;
7473;SDS011;3778;42.572;23.426;2024-03-02T11:06:58;19.73;;;9.82;;
7473;SDS011;3778;42.572;23.426;2024-03-02T11:09:26;20.90;;;10.30;;
7473;SDS011;3778;42.572;23.426;2024-03-02T11:12:03;21.30;;;9.88;;
7473;SDS011;3778;42.572;23.426;2024-03-02T11:14:37;22.85;;;11.82;;
7473;SDS011;3778;42.572;23.426;2024-03-02T11:17:08;24.10;;;10.30;;
7473;SDS011;3778;42.572;23.426;2024-03-02T11:19:35;27.55;;;10.73;;
7473;SDS011;3778;42.572;23.426;2024-03-02T11:22:02;20.90;;;10.20;;
7473;SDS011;3778;42.572;23.426;2024-03-02T11:24:28;23.15;;;10.77;;
7473;SDS011;3778;42.572;23.426;2024-03-02T11:27:04;21.98;;;9.75;;
7473;SDS011;3778;42.572;23.426;2024-03-02T11:34:32;25.63;;;10.35;;
7473;SDS011;3778;42.572;23.426;2024-03-02T11:36:59;29.17;;;12.30;;
7473;SDS011;3778;42.572;23.426;2024-03-02T11:39:27;21.75;;;10.88;;
7473;SDS011;3778;42.572;23.426;2024-03-02T11:41:54;21.25;;;10.18;;
7473;SDS011;3778;42.572;23.426;2024-03-02T11:44:20;21.35;;;9.20;;
7473;SDS011;3778;42.572;23.426;2024-03-02T11:46:46;20.15;;;9.85;;
7473;SDS011;3778;42.572;23.426;2024-03-02T11:50:03;24.58;;;10.77;;
7473;SDS011;3778;42.572;23.426;2024-03-02T11:52:06;20.90;;;10.00;;
7473;SDS011;3778;42.572;23.426;2024-03-02T11:54:33;22.60;;;11.68;;
7473;SDS011;3778;42.572;23.426;2024-03-02T11:57:04;21.92;;;10.30;;
7473;SDS011;3778;42.572;23.426;2024-03-02T11:59:30;22.88;;;10.68;;
7473;SDS011;3778;42.572;23.426;2024-03-02T12:01:56;27.48;;;11.95;;
7473;SDS011;3778;42.572;23.426;2024-03-02T12:04:23;20.52;;;10.40;;
7473;SDS011;3778;42.572;23.426;2024-03-02T12:06:54;17.98;;;8.35;;
7473;SDS011;3778;42.572;23.426;2024-03-02T12:09:27;20.42;;;9.70;;
7473;SDS011;3778;42.572;23.426;2024-03-02T12:14:29;23.65;;;11.27;;
7473;SDS011;3778;42.572;23.426;2024-03-02T12:16:55;24.58;;;10.70;;
7473;SDS011;3778;42.572;23.426;2024-03-02T12:19:21;23.35;;;9.82;;
7473;SDS011;3778;42.572;23.426;2024-03-02T12:21:46;20.45;;;9.90;;
7473;SDS011;3778;42.572;23.426;2024-03-02T12:24:12;22.67;;;10.65;;
7473;SDS011;3778;42.572;23.426;2024-03-02T12:26:37;20.67;;;9.98;;
7473;SDS011;3778;42.572;23.426;2024-03-02T12:29:03;20.05;;;9.25;;
7473;SDS011;3778;42.572;23.426;2024-03-02T12:31:28;20.90;;;10.02;;
7473;SDS011;3778;42.572;23.426;2024-03-02T12:33:54;23.40;;;10.35;;
7473;SDS011;3778;42.572;23.426;2024-03-02T12:36:20;20.90;;;10.07;;
7473;SDS011;3778;42.572;23.426;2024-03-02T12:38:45;20.40;;;9.98;;
7473;SDS011;3778;42.572;23.426;2024-03-02T12:41:14;20.95;;;9.57;;
7473;SDS011;3778;42.572;23.426;2024-03-02T12:43:40;20.48;;;10.05;;
7473;SDS011;3778;42.572;23.426;2024-03-02T12:46:06;20.70;;;9.48;;
7473;SDS011;3778;42.572;23.426;2024-03-02T12:48:31;18.98;;;10.05;;
7473;SDS011;3778;42.572;23.426;2024-03-02T12:50:57;24.05;;;10.85;;
7473;SDS011;3778;42.572;23.426;2024-03-02T12:53:22;23.17;;;9.52;;
7473;SDS011;3778;42.572;23.426;2024-03-02T12:55:48;21.90;;;10.10;;
7473;SDS011;3778;42.572;23.426;2024-03-02T12:58:18;22.52;;;8.95;;
7473;SDS011;3778;42.572;23.426;2024-03-02T13:00:45;18.10;;;9.10;;
7473;SDS011;3778;42.572;23.426;2024-03-02T13:03:11;17.20;;;8.73;;
7473;SDS011;3778;42.572;23.426;2024-03-02T13:05:37;16.80;;;9.60;;
7473;SDS011;3778;42.572;23.426;2024-03-02T13:08:02;20.45;;;9.90;;
7473;SDS011;3778;42.572;23.426;2024-03-02T13:10:29;20.95;;;10.32;;
7473;SDS011;3778;42.572;23.426;2024-03-02T13:12:56;17.17;;;8.38;;
7473;SDS011;3778;42.572;23.426;2024-03-02T13:15:21;18.50;;;9.20;;
7473;SDS011;3778;42.572;23.426;2024-03-02T13:17:47;20.00;;;8.50;;
7473;SDS011;3778;42.572;23.426;2024-03-02T13:20:14;17.50;;;8.48;;
7473;SDS011;3778;42.572;23.426;2024-03-02T13:22:40;15.77;;;8.38;;
7473;SDS011;3778;42.572;23.426;2024-03-02T13:25:05;19.77;;;9.27;;
7473;SDS011;3778;42.572;23.426;2024-03-02T13:27:31;15.13;;;8.52;;
7473;SDS011;3778;42.572;23.426;2024-03-02T13:29:57;15.80;;;8.25;;
7473;SDS011;3778;42.572;23.426;2024-03-02T13:32:23;21.33;;;9.30;;
7473;SDS011;3778;42.572;23.426;2024-03-02T13:34:50;17.30;;;8.52;;
7473;SDS011;3778;42.572;23.426;2024-03-02T13:37:16;20.13;;;9.52;;
7473;SDS011;3778;42.572;23.426;2024-03-02T13:39:42;19.95;;;9.48;;
7473;SDS011;3778;42.572;23.426;2024-03-02T13:42:09;20.17;;;9.93;;
7473;SDS011;3778;42.572;23.426;2024-03-02T13:44:35;16.80;;;8.25;;
7473;SDS011;3778;42.572;23.426;2024-03-02T13:47:01;14.65;;;8.13;;
7473;SDS011;3778;42.572;23.426;2024-03-02T13:49:27;17.52;;;10.15;;
7473;SDS011;3778;42.572;23.426;2024-03-02T13:51:58;19.60;;;10.63;;
7473;SDS011;3778;42.572;23.426;2024-03-02T13:54:25;25.55;;;10.82;;
7473;SDS011;3778;42.572;23.426;2024-03-02T13:56:51;18.77;;;9.48;;
7473;SDS011;3778;42.572;23.426;2024-03-02T13:59:17;19.73;;;9.73;;
7473;SDS011;3778;42.572;23.426;2024-03-02T14:01:43;21.90;;;10.40;;
7473;SDS011;3778;42.572;23.426;2024-03-02T14:04:09;20.48;;;9.95;;
7473;SDS011;3778;42.572;23.426;2024-03-02T14:06:35;20.13;;;10.35;;
7473;SDS011;3778;42.572;23.426;2024-03-02T14:09:00;24.20;;;10.90;;
7473;SDS011;3778;42.572;23.426;2024-03-02T14:11:25;24.73;;;12.02;;
7473;SDS011;3778;42.572;23.426;2024-03-02T14:13:51;22.15;;;11.15;;
7473;SDS011;3778;42.572;23.426;2024-03-02T14:16:19;29.67;;;13.82;;
7473;SDS011;3778;42.572;23.426;2024-03-02T14:18:45;25.75;;;10.85;;
7473;SDS011;3778;42.572;23.426;2024-03-02T14:21:11;26.75;;;10.88;;
7473;SDS011;3778;42.572;23.426;2024-03-02T14:23:36;26.08;;;11.95;;
7473;SDS011;3778;42.572;23.426;2024-03-02T14:26:01;21.77;;;11.05;;
7473;SDS011;3778;42.572;23.426;2024-03-02T14:28:27;27.98;;;11.02;;
7473;SDS011;3778;42.572;23.426;2024-03-02T14:30:53;26.17;;;10.98;;
7473;SDS011;3778;42.572;23.426;2024-03-02T14:33:18;23.52;;;10.68;;
7473;SDS011;3778;42.572;23.426;2024-03-02T14:35:44;23.08;;;11.90;;
7473;SDS011;3778;42.572;23.426;2024-03-02T14:38:10;24.30;;;10.65;;
7473;SDS011;3778;42.572;23.426;2024-03-02T14:40:36;20.65;;;10.68;;
7473;SDS011;3778;42.572;23.426;2024-03-02T14:43:02;23.45;;;11.82;;
7473;SDS011;3778;42.572;23.426;2024-03-02T14:45:27;23.73;;;11.73;;
7473;SDS011;3778;42.572;23.426;2024-03-02T14:47:53;25.88;;;11.00;;
7473;SDS011;3778;42.572;23.426;2024-03-02T14:50:18;22.83;;;13.00;;
7473;SDS011;3778;42.572;23.426;2024-03-02T14:52:44;25.60;;;11.77;;
7473;SDS011;3778;42.572;23.426;2024-03-02T14:55:10;24.92;;;13.38;;